createdAt,value
2023-07-05T00:00:41.602Z,86.18
2023-07-05T00:02:04.580Z,86.62
2023-07-05T00:03:07.599Z,86.23
2023-07-05T00:04:11.110Z,86.13
2023-07-05T00:05:14.176Z,85.97
2023-07-05T00:06:17.218Z,85.99
2023-07-05T00:07:20.099Z,86.12
2023-07-05T00:08:23.828Z,86.06
2023-07-05T00:09:26.760Z,86.06
2023-07-05T00:10:29.605Z,86.09
2023-07-05T00:11:32.524Z,86.02
2023-07-05T00:12:35.516Z,86.19
2023-07-05T00:13:39.117Z,86.39
2023-07-05T00:14:42.032Z,86.36
2023-07-05T00:15:48.760Z,86.37
2023-07-05T00:16:51.600Z,86.53
2023-07-05T00:17:54.584Z,86.13
2023-07-05T00:18:57.459Z,86.07
2023-07-05T00:20:00.925Z,86.20
2023-07-05T00:21:06.304Z,86.47
2023-07-05T00:22:09.410Z,86.25
2023-07-05T00:23:12.341Z,86.60
2023-07-05T00:24:17.810Z,86.43
2023-07-05T00:25:21.215Z,86.32
2023-07-05T00:26:26.271Z,86.36
2023-07-05T00:27:29.875Z,86.50
2023-07-05T00:28:35.864Z,86.56
2023-07-05T00:29:38.779Z,86.46
2023-07-05T00:30:44.842Z,86.68
2023-07-05T00:31:47.776Z,86.47
2023-07-05T00:32:50.824Z,86.45
2023-07-05T00:33:54.840Z,86.47
2023-07-05T00:34:57.760Z,86.33
2023-07-05T00:36:00.968Z,86.28
2023-07-05T00:37:04.246Z,86.38
2023-07-05T00:38:07.078Z,86.41
2023-07-05T00:39:09.868Z,86.36
2023-07-05T00:40:15.907Z,86.37
2023-07-05T00:41:20.117Z,87.02
2023-07-05T00:42:25.863Z,86.83
2023-07-05T00:43:28.820Z,86.94
2023-07-05T00:44:33.277Z,86.79
2023-07-05T00:45:53.458Z,86.61
2023-07-05T00:47:12.869Z,86.62
2023-07-05T00:48:22.084Z,87.19
2023-07-05T00:49:28.717Z,86.73
2023-07-05T00:50:38.925Z,86.72
2023-07-05T00:51:55.649Z,86.97
2023-07-05T00:52:58.959Z,86.94
2023-07-05T00:54:06.023Z,86.63
2023-07-05T00:55:10.201Z,86.88
2023-07-05T00:56:25.197Z,86.55
2023-07-05T00:57:32.268Z,87.16
2023-07-05T00:58:36.151Z,86.69
2023-07-05T00:59:53.995Z,86.79
2023-07-05T01:00:56.881Z,87.10
2023-07-05T01:02:03.766Z,86.81
2023-07-05T01:03:13.249Z,86.61
2023-07-05T01:04:16.259Z,86.76
2023-07-05T01:05:20.118Z,86.96
2023-07-05T01:06:25.168Z,86.90
2023-07-05T01:07:28.085Z,86.89
2023-07-05T01:08:30.992Z,86.81
2023-07-05T01:09:34.051Z,86.67
2023-07-05T01:10:37.538Z,86.77
2023-07-05T01:12:00.384Z,86.47
2023-07-05T01:13:30.247Z,87.23
2023-07-05T01:14:57.680Z,87.28
2023-07-05T01:16:37.702Z,86.90
2023-07-05T01:17:48.976Z,87.84
2023-07-05T01:19:04.641Z,87.30
2023-07-05T01:20:41.413Z,86.82
2023-07-05T01:22:07.502Z,87.16
2023-07-05T01:23:46.093Z,87.10
2023-07-05T01:25:08.626Z,87.17
2023-07-05T01:26:39.374Z,86.99
2023-07-05T01:27:48.120Z,87.43
2023-07-05T01:29:00.998Z,86.89
2023-07-05T01:32:14.855Z,87.01
2023-07-05T01:33:31.248Z,86.76
2023-07-05T01:34:47.696Z,86.68
2023-07-05T01:35:56.246Z,86.61
2023-07-05T01:36:59.369Z,86.48
2023-07-05T01:38:05.881Z,86.32
2023-07-05T01:39:09.068Z,86.31
2023-07-05T01:40:40.767Z,86.08
2023-07-05T01:41:43.774Z,86.33
2023-07-05T01:42:49.264Z,86.21
2023-07-05T01:43:53.601Z,86.25
2023-07-05T01:44:56.807Z,86.21
2023-07-05T01:46:08.751Z,86.20
2023-07-05T01:47:28.828Z,86.09
2023-07-05T01:48:47.271Z,86.39
2023-07-05T01:49:56.029Z,86.25
2023-07-05T01:51:26.352Z,86.26
2023-07-05T01:52:39.911Z,86.67
2023-07-05T01:54:11.760Z,86.43
2023-07-05T01:55:26.286Z,86.53
2023-07-05T01:56:47.677Z,86.35
2023-07-05T01:57:59.576Z,86.51
2023-07-05T01:59:05.257Z,86.88
2023-07-05T02:00:13.024Z,86.73
2023-07-05T02:01:18.253Z,86.60
2023-07-05T02:02:25.005Z,86.53
2023-07-05T02:03:30.457Z,86.37
2023-07-05T02:04:36.712Z,86.82
2023-07-05T02:05:39.863Z,86.38
2023-07-05T02:06:44.522Z,86.26
2023-07-05T02:07:47.414Z,86.43
2023-07-05T02:08:51.260Z,86.26
2023-07-05T02:09:55.221Z,86.15
2023-07-05T02:10:58.192Z,86.33
2023-07-05T02:12:01.034Z,86.31
2023-07-05T02:13:08.232Z,86.17
2023-07-05T02:14:13.029Z,86.13
2023-07-05T02:15:16.054Z,86.12
2023-07-05T02:16:18.922Z,86.25
2023-07-05T02:17:24.596Z,86.10
2023-07-05T02:18:30.548Z,86.10
2023-07-05T02:19:33.479Z,86.35
2023-07-05T02:20:37.727Z,86.46
2023-07-05T02:21:40.562Z,86.22
2023-07-05T02:22:43.519Z,86.12
2023-07-05T02:23:46.412Z,86.15
2023-07-05T02:24:53.243Z,86.10
2023-07-05T02:26:04.495Z,86.16
2023-07-05T02:27:08.128Z,86.23
2023-07-05T02:28:12.099Z,86.33
2023-07-05T02:29:15.062Z,86.16
2023-07-05T02:30:19.674Z,86.01
2023-07-05T02:31:22.653Z,86.30
2023-07-05T02:32:26.032Z,86.28
2023-07-05T02:33:28.926Z,86.10
2023-07-05T02:34:32.099Z,86.25
2023-07-05T02:35:37.722Z,86.26
2023-07-05T02:36:40.574Z,86.07
2023-07-05T02:37:43.434Z,86.20
2023-07-05T02:38:46.442Z,86.12
2023-07-05T02:39:53.814Z,86.25
2023-07-05T02:40:56.780Z,86.21
2023-07-05T02:41:59.726Z,86.14
2023-07-05T02:43:02.927Z,86.20
2023-07-05T02:44:05.785Z,85.99
2023-07-05T02:45:09.361Z,86.25
2023-07-05T02:46:13.084Z,86.23
2023-07-05T02:47:18.573Z,86.00
2023-07-05T02:48:21.465Z,86.27
2023-07-05T02:49:24.354Z,86.37
2023-07-05T02:50:27.189Z,86.27
2023-07-05T02:51:30.647Z,86.05
2023-07-05T02:52:33.481Z,86.12
2023-07-05T02:53:36.301Z,86.16
2023-07-05T02:54:39.263Z,86.08
2023-07-05T02:55:42.315Z,86.22
2023-07-05T02:56:45.282Z,85.94
2023-07-05T02:57:48.174Z,86.11
2023-07-05T02:58:52.233Z,86.01
2023-07-05T02:59:55.037Z,86.19
2023-07-05T03:00:57.864Z,86.02
2023-07-05T03:02:02.022Z,86.27
2023-07-05T03:03:05.017Z,86.32
2023-07-05T03:04:07.971Z,86.24
2023-07-05T03:05:13.960Z,86.31
2023-07-05T03:06:16.993Z,86.28
2023-07-05T03:07:21.244Z,86.08
2023-07-05T03:08:26.844Z,86.15
2023-07-05T03:09:29.805Z,86.10
2023-07-05T03:10:37.233Z,86.19
2023-07-05T03:11:40.082Z,85.98
2023-07-05T03:12:42.909Z,85.96
2023-07-05T03:13:47.274Z,85.90
2023-07-05T03:14:50.392Z,85.89
2023-07-05T03:15:53.616Z,86.08
2023-07-05T03:16:56.905Z,86.03
2023-07-05T03:17:59.831Z,86.15
2023-07-05T03:19:03.036Z,85.81
2023-07-05T03:20:06.702Z,86.20
2023-07-05T03:21:09.616Z,85.92
2023-07-05T03:22:12.427Z,85.88
2023-07-05T03:23:16.680Z,85.91
2023-07-05T03:24:19.550Z,86.11
2023-07-05T03:25:22.451Z,86.08
2023-07-05T03:26:25.226Z,85.99
2023-07-05T03:27:32.480Z,85.90
2023-07-05T03:28:37.425Z,86.17
2023-07-05T03:29:41.758Z,86.18
2023-07-05T03:30:55.612Z,86.00
2023-07-05T03:32:00.101Z,86.08
2023-07-05T03:33:03.233Z,85.84
2023-07-05T03:34:06.279Z,85.64
2023-07-05T03:35:09.099Z,85.62
2023-07-05T03:36:15.203Z,85.54
2023-07-05T03:37:18.177Z,85.51
2023-07-05T03:38:20.972Z,85.78
2023-07-05T03:39:23.735Z,85.79
2023-07-05T03:40:26.839Z,85.69
2023-07-05T03:41:31.050Z,85.76
2023-07-05T03:42:33.862Z,85.49
2023-07-05T03:43:37.937Z,85.55
2023-07-05T03:44:40.747Z,85.79
2023-07-05T03:45:43.673Z,85.52
2023-07-05T03:46:48.640Z,85.77
2023-07-05T03:47:51.586Z,85.13
2023-07-05T03:48:54.818Z,85.18
2023-07-05T03:49:57.731Z,85.24
2023-07-05T03:51:01.633Z,85.08
2023-07-05T03:52:04.694Z,84.96
2023-07-05T03:53:07.482Z,85.23
2023-07-05T03:54:10.765Z,85.32
2023-07-05T03:55:13.678Z,85.26
2023-07-05T03:56:17.942Z,84.93
2023-07-05T03:57:20.960Z,84.93
2023-07-05T03:58:23.720Z,84.30
2023-07-05T03:59:26.569Z,84.80
2023-07-05T04:00:29.376Z,84.49
2023-07-05T04:01:32.387Z,84.43
2023-07-05T04:02:35.412Z,84.89
2023-07-05T04:03:38.416Z,84.70
2023-07-05T04:04:43.905Z,84.86
2023-07-05T04:05:47.105Z,84.73
2023-07-05T04:06:50.153Z,84.77
2023-07-05T04:07:53.024Z,84.38
2023-07-05T04:08:56.082Z,84.33
2023-07-05T04:09:58.908Z,84.11
2023-07-05T04:11:01.864Z,84.41
2023-07-05T04:12:05.241Z,84.08
2023-07-05T04:13:08.811Z,83.90
2023-07-05T04:14:12.829Z,84.21
2023-07-05T04:15:16.268Z,84.28
2023-07-05T04:16:22.304Z,83.86
2023-07-05T04:17:25.304Z,83.69
2023-07-05T04:18:29.860Z,83.80
2023-07-05T04:19:32.741Z,83.69
2023-07-05T04:20:37.818Z,83.66
2023-07-05T04:21:41.293Z,84.08
2023-07-05T04:22:45.099Z,83.93
2023-07-05T04:23:48.239Z,83.84
2023-07-05T04:24:51.043Z,83.59
2023-07-05T04:26:05.551Z,83.65
2023-07-05T04:27:08.388Z,83.56
2023-07-05T04:28:11.284Z,83.55
2023-07-05T04:29:14.124Z,83.41
2023-07-05T04:30:17.022Z,83.25
2023-07-05T04:31:29.622Z,83.31
2023-07-05T04:32:32.941Z,83.62
2023-07-05T04:33:36.768Z,83.47
2023-07-05T04:34:42.095Z,83.16
2023-07-05T04:35:50.139Z,83.37
2023-07-05T04:36:52.910Z,83.38
2023-07-05T04:37:55.708Z,83.14
2023-07-05T04:38:59.431Z,83.01
2023-07-05T04:40:03.443Z,83.02
2023-07-05T04:41:06.522Z,83.07
2023-07-05T04:42:09.410Z,83.10
2023-07-05T04:43:12.193Z,82.98
2023-07-05T04:44:15.134Z,82.65
2023-07-05T04:45:17.989Z,82.29
2023-07-05T04:46:21.352Z,82.47
2023-07-05T04:47:24.365Z,82.56
2023-07-05T04:48:29.178Z,82.24
2023-07-05T04:49:32.266Z,82.54
2023-07-05T04:50:35.184Z,82.38
2023-07-05T04:51:37.971Z,82.07
2023-07-05T04:52:40.998Z,82.36
2023-07-05T04:53:43.803Z,82.37
2023-07-05T04:54:46.652Z,82.19
2023-07-05T04:55:52.307Z,82.13
2023-07-05T04:56:55.207Z,81.85
2023-07-05T04:57:58.136Z,82.45
2023-07-05T04:59:00.981Z,81.90
2023-07-05T05:00:04.686Z,81.29
2023-07-05T05:01:10.575Z,82.00
2023-07-05T05:02:13.725Z,81.65
2023-07-05T05:03:21.588Z,81.20
2023-07-05T05:04:24.586Z,81.32
2023-07-05T05:05:27.689Z,81.38
2023-07-05T05:06:30.501Z,81.24
2023-07-05T05:07:33.640Z,80.90
2023-07-05T05:08:36.494Z,80.80
2023-07-05T05:09:41.825Z,80.73
2023-07-05T05:10:45.000Z,81.02
2023-07-05T05:11:47.836Z,80.98
2023-07-05T05:12:50.811Z,81.12
2023-07-05T05:13:53.665Z,81.10
2023-07-05T05:14:56.547Z,80.39
2023-07-05T05:16:00.083Z,80.31
2023-07-05T05:17:03.269Z,80.83
2023-07-05T05:18:07.663Z,80.06
2023-07-05T05:19:10.546Z,79.62
2023-07-05T05:20:13.361Z,79.07
2023-07-05T05:21:16.133Z,79.47
2023-07-05T05:22:18.995Z,79.80
2023-07-05T05:23:22.001Z,79.41
2023-07-05T05:24:24.969Z,79.21
2023-07-05T05:25:28.632Z,79.25
2023-07-05T05:26:31.468Z,79.57
2023-07-05T05:27:34.463Z,79.32
2023-07-05T05:28:37.561Z,78.45
2023-07-05T05:29:40.541Z,78.33
2023-07-05T05:30:45.466Z,78.08
2023-07-05T05:31:49.906Z,77.41
2023-07-05T05:32:52.849Z,77.63
2023-07-05T05:33:55.774Z,77.80
2023-07-05T05:34:58.640Z,77.92
2023-07-05T05:36:02.559Z,77.69
2023-07-05T05:37:05.458Z,77.57
2023-07-05T05:38:08.815Z,77.62
2023-07-05T05:39:11.686Z,79.13
2023-07-05T05:40:14.610Z,77.85
2023-07-05T05:41:17.454Z,76.70
2023-07-05T05:42:20.233Z,76.62
2023-07-05T05:43:23.057Z,76.28
2023-07-05T05:44:25.974Z,76.03
2023-07-05T05:45:28.849Z,77.34
2023-07-05T05:46:31.680Z,77.22
2023-07-05T05:47:34.616Z,76.66
2023-07-05T05:48:37.660Z,76.73
2023-07-05T05:49:40.461Z,76.42
2023-07-05T05:50:43.427Z,76.21
2023-07-05T05:51:46.386Z,75.74
2023-07-05T05:52:49.242Z,75.57
2023-07-05T05:53:52.395Z,75.47
2023-07-05T05:54:55.345Z,77.02
2023-07-05T05:55:58.627Z,76.92
2023-07-05T05:57:02.837Z,76.06
2023-07-05T05:58:06.655Z,76.40
2023-07-05T05:59:09.451Z,76.32
2023-07-05T06:00:13.419Z,76.67
2023-07-05T06:01:17.138Z,76.77
2023-07-05T06:02:20.407Z,76.86
2023-07-05T06:03:23.605Z,76.91
2023-07-05T06:04:27.555Z,76.55
2023-07-05T06:05:32.305Z,76.44
2023-07-05T06:06:35.251Z,77.19
2023-07-05T06:07:39.303Z,77.33
2023-07-05T06:08:42.179Z,78.01
2023-07-05T06:09:48.458Z,78.53
2023-07-05T06:11:01.924Z,77.54
2023-07-05T06:12:05.309Z,78.22
2023-07-05T06:13:08.346Z,76.68
2023-07-05T06:14:11.319Z,77.35
2023-07-05T06:15:15.070Z,77.44
2023-07-05T06:16:18.256Z,76.13
2023-07-05T06:17:21.236Z,76.07
2023-07-05T06:18:24.277Z,75.58
2023-07-05T06:19:27.220Z,77.76
2023-07-05T06:20:34.430Z,77.89
2023-07-05T06:21:37.361Z,77.12
2023-07-05T06:22:40.321Z,76.33
2023-07-05T06:23:43.273Z,76.29
2023-07-05T06:24:46.119Z,76.06
2023-07-05T06:25:52.088Z,75.31
2023-07-05T06:26:56.205Z,75.78
2023-07-05T06:27:59.060Z,75.31
2023-07-05T06:29:01.932Z,75.38
2023-07-05T06:30:05.686Z,76.26
2023-07-05T06:31:11.224Z,76.28
2023-07-05T06:32:14.770Z,75.34
2023-07-05T06:33:17.522Z,76.25
2023-07-05T06:34:20.480Z,75.42
2023-07-05T06:35:23.551Z,76.13
2023-07-05T06:36:26.720Z,75.24
2023-07-05T06:37:29.666Z,74.84
2023-07-05T06:38:32.571Z,74.63
2023-07-05T06:39:37.666Z,74.86
2023-07-05T06:40:40.475Z,74.73
2023-07-05T06:41:43.486Z,75.22
2023-07-05T06:42:46.373Z,76.61
2023-07-05T06:43:50.548Z,76.04
2023-07-05T06:44:53.496Z,75.57
2023-07-05T06:45:57.278Z,73.77
2023-07-05T06:47:00.536Z,74.36
2023-07-05T06:48:03.736Z,74.05
2023-07-05T06:49:06.675Z,74.06
2023-07-05T06:50:10.259Z,73.30
2023-07-05T06:51:13.121Z,73.04
2023-07-05T06:52:16.867Z,73.69
2023-07-05T06:53:38.243Z,75.78
2023-07-05T06:54:43.270Z,77.97
2023-07-05T06:55:49.207Z,72.43
2023-07-05T06:56:52.345Z,72.87
2023-07-05T06:57:55.335Z,72.46
2023-07-05T06:58:58.182Z,73.30
2023-07-05T07:00:01.053Z,71.49
2023-07-05T07:01:04.903Z,72.89
2023-07-05T07:02:09.304Z,72.31
2023-07-05T07:03:12.370Z,74.75
2023-07-05T07:04:15.329Z,73.50
2023-07-05T07:05:18.224Z,74.00
2023-07-05T07:06:21.105Z,72.45
2023-07-05T07:07:23.966Z,71.84
2023-07-05T07:08:32.432Z,70.67
2023-07-05T07:09:35.994Z,69.59
2023-07-05T07:10:38.853Z,70.87
2023-07-05T07:11:41.649Z,70.79
2023-07-05T07:12:44.549Z,70.04
2023-07-05T07:13:47.540Z,69.29
2023-07-05T07:14:50.521Z,70.93
2023-07-05T07:16:07.201Z,69.01
2023-07-05T07:17:10.218Z,70.92
2023-07-05T07:18:13.130Z,69.93
2023-07-05T07:19:16.133Z,70.34
2023-07-05T07:20:20.331Z,69.65
2023-07-05T07:21:23.240Z,67.25
2023-07-05T07:22:26.444Z,69.99
2023-07-05T07:23:30.637Z,70.41
2023-07-05T07:24:33.779Z,66.79
2023-07-05T07:25:36.675Z,66.68
2023-07-05T07:26:39.831Z,67.68
2023-07-05T07:27:42.721Z,68.28
2023-07-05T07:28:51.409Z,67.81
2023-07-05T07:29:54.806Z,69.41
2023-07-05T07:30:58.722Z,68.15
2023-07-05T07:32:05.163Z,70.56
2023-07-05T07:33:08.132Z,66.14
2023-07-05T07:34:11.666Z,67.69
2023-07-05T07:35:15.572Z,69.95
2023-07-05T07:36:21.741Z,69.27
2023-07-05T07:37:25.040Z,60.99
2023-07-05T07:38:27.844Z,66.07
2023-07-05T07:39:30.855Z,66.45
2023-07-05T07:40:37.842Z,65.42
2023-07-05T07:41:40.765Z,67.92
2023-07-05T07:42:43.740Z,66.82
2023-07-05T07:43:47.401Z,64.85
2023-07-05T07:44:50.235Z,63.15
2023-07-05T07:45:53.024Z,66.10
2023-07-05T07:46:55.915Z,65.71
2023-07-05T07:47:59.751Z,64.77
2023-07-05T07:49:04.294Z,62.76
2023-07-05T07:50:07.704Z,65.53
2023-07-05T07:51:17.203Z,64.46
2023-07-05T07:52:30.371Z,62.92
2023-07-05T07:53:33.434Z,66.48
2023-07-05T07:54:36.244Z,62.62
2023-07-05T07:55:39.097Z,65.95
2023-07-05T07:56:46.623Z,64.56
2023-07-05T07:57:49.489Z,66.06
2023-07-05T07:58:54.759Z,65.79
2023-07-05T07:59:57.637Z,64.79
2023-07-05T08:01:11.065Z,66.40
2023-07-05T08:02:14.981Z,63.05
2023-07-05T08:03:17.914Z,63.72
2023-07-05T08:04:20.919Z,63.35
2023-07-05T08:05:24.996Z,62.92
2023-07-05T08:06:34.457Z,62.75
2023-07-05T08:07:37.301Z,65.30
2023-07-05T08:08:41.118Z,61.37
2023-07-05T08:09:44.119Z,63.64
2023-07-05T08:10:46.999Z,62.33
2023-07-05T08:11:50.042Z,61.73
2023-07-05T08:12:53.006Z,61.39
2023-07-05T08:13:55.969Z,63.14
2023-07-05T08:14:58.867Z,61.08
2023-07-05T08:16:04.640Z,61.65
2023-07-05T08:17:07.608Z,62.91
2023-07-05T08:18:10.558Z,62.67
2023-07-05T08:19:13.751Z,62.92
2023-07-05T08:20:16.713Z,60.02
2023-07-05T08:21:19.812Z,62.82
2023-07-05T08:22:22.661Z,62.93
2023-07-05T08:23:25.640Z,62.49
2023-07-05T08:24:28.521Z,60.81
2023-07-05T08:25:35.158Z,60.84
2023-07-05T08:26:38.148Z,59.58
2023-07-05T08:27:41.046Z,59.89
2023-07-05T08:28:44.513Z,59.58
2023-07-05T08:29:47.346Z,60.89
2023-07-05T08:30:59.126Z,61.16
2023-07-05T08:32:02.189Z,63.58
2023-07-05T08:33:05.207Z,61.14
2023-07-05T08:34:09.547Z,57.92
2023-07-05T08:35:12.807Z,59.52
2023-07-05T08:36:15.744Z,59.40
2023-07-05T08:37:18.682Z,58.99
2023-07-05T08:38:22.743Z,62.34
2023-07-05T08:39:25.924Z,61.21
2023-07-05T08:40:34.868Z,58.46
2023-07-05T08:41:46.812Z,58.22
2023-07-05T08:43:03.021Z,60.25
2023-07-05T08:44:27.201Z,61.79
2023-07-05T08:45:36.797Z,60.46
2023-07-05T08:46:40.540Z,61.91
2023-07-05T08:47:49.551Z,60.81
2023-07-05T08:48:57.465Z,58.86
2023-07-05T08:50:26.796Z,60.54
2023-07-05T08:51:32.480Z,65.91
2023-07-05T08:52:40.902Z,59.29
2023-07-05T08:53:51.917Z,59.30
2023-07-05T08:54:58.657Z,58.62
2023-07-05T08:56:01.467Z,59.45
2023-07-05T08:57:09.679Z,60.63
2023-07-05T08:58:20.468Z,55.85
2023-07-05T08:59:30.686Z,58.20
2023-07-05T09:00:43.563Z,60.41
2023-07-05T09:01:46.818Z,61.16
2023-07-05T09:02:49.904Z,58.28
2023-07-05T09:03:53.057Z,59.25
2023-07-05T09:04:59.332Z,56.29
2023-07-05T09:06:12.700Z,56.17
2023-07-05T09:07:21.679Z,58.12
2023-07-05T09:09:01.303Z,56.28
2023-07-05T09:10:13.579Z,61.93
2023-07-05T09:11:37.562Z,56.12
2023-07-05T09:12:57.339Z,55.30
2023-07-05T09:14:24.775Z,60.60
2023-07-05T09:15:35.558Z,60.02
2023-07-05T09:16:48.502Z,58.96
2023-07-05T09:17:53.904Z,55.38
2023-07-05T09:19:15.263Z,55.91
2023-07-05T09:20:52.486Z,60.09
2023-07-05T09:22:06.001Z,61.78
2023-07-05T09:23:16.691Z,57.67
2023-07-05T09:24:30.252Z,54.88
2023-07-05T09:25:44.812Z,57.04
2023-07-05T09:27:02.569Z,57.28
2023-07-05T09:28:19.515Z,55.79
2023-07-05T09:29:47.778Z,56.02
2023-07-05T09:30:51.737Z,53.36
2023-07-05T09:31:55.340Z,52.66
2023-07-05T09:33:19.443Z,53.42
2023-07-05T09:34:28.695Z,59.15
2023-07-05T09:35:35.924Z,54.05
2023-07-05T09:36:39.133Z,54.67
2023-07-05T09:37:52.345Z,53.87
2023-07-05T09:39:16.407Z,57.23
2023-07-05T09:40:23.721Z,55.08
2023-07-05T09:41:41.417Z,51.96
2023-07-05T09:43:01.404Z,48.97
2023-07-05T09:44:04.375Z,57.93
2023-07-05T09:45:12.670Z,59.52
2023-07-05T09:46:30.080Z,56.13
2023-07-05T09:47:33.042Z,55.93
2023-07-05T09:48:42.420Z,51.95
2023-07-05T09:49:45.270Z,55.15
2023-07-05T09:50:51.442Z,53.22
2023-07-05T09:51:54.778Z,51.87
2023-07-05T09:53:36.790Z,53.35
2023-07-05T09:54:40.148Z,52.13
2023-07-05T09:56:02.238Z,52.69
2023-07-05T09:57:07.764Z,55.64
2023-07-05T09:58:22.288Z,50.47
2023-07-05T09:59:25.535Z,51.09
2023-07-05T10:00:35.206Z,50.91
2023-07-05T10:01:41.888Z,49.72
2023-07-05T10:02:45.116Z,51.51
2023-07-05T10:04:02.366Z,52.89
2023-07-05T10:05:14.504Z,53.93
2023-07-05T10:06:19.405Z,49.14
2023-07-05T10:07:25.611Z,50.66
2023-07-05T10:08:28.376Z,54.10
2023-07-05T10:09:31.150Z,52.21
2023-07-05T10:10:36.619Z,51.43
2023-07-05T10:11:48.675Z,49.68
2023-07-05T10:13:01.737Z,51.49
2023-07-05T10:14:04.706Z,49.34
2023-07-05T10:15:21.781Z,49.47
2023-07-05T10:16:24.781Z,50.85
2023-07-05T10:17:43.505Z,49.88
2023-07-05T10:18:46.446Z,49.68
2023-07-05T10:19:54.279Z,50.32
2023-07-05T10:21:03.484Z,52.25
2023-07-05T10:22:31.394Z,50.13
2023-07-05T10:23:35.323Z,50.32
2023-07-05T10:24:44.666Z,48.96
2023-07-05T10:25:48.011Z,47.27
2023-07-05T10:26:52.237Z,47.63
2023-07-05T10:28:01.088Z,47.82
2023-07-05T10:29:11.130Z,47.65
2023-07-05T10:30:17.071Z,47.68
2023-07-05T10:31:29.292Z,46.43
2023-07-05T10:32:32.641Z,48.23
2023-07-05T10:33:39.177Z,47.86
2023-07-05T10:34:44.482Z,45.74
2023-07-05T10:35:54.953Z,47.60
2023-07-05T10:36:58.360Z,47.60
2023-07-05T10:38:02.044Z,45.73
2023-07-05T10:39:11.198Z,45.85
2023-07-05T10:40:14.987Z,46.16
2023-07-05T10:41:20.424Z,45.68
2023-07-05T10:42:26.013Z,45.56
2023-07-05T10:43:31.637Z,47.34
2023-07-05T10:44:39.960Z,45.24
2023-07-05T10:45:42.898Z,46.67
2023-07-05T10:46:47.686Z,45.98
2023-07-05T10:47:56.050Z,44.88
2023-07-05T10:48:59.521Z,45.76
2023-07-05T10:50:06.274Z,42.61
2023-07-05T10:51:16.725Z,44.27
2023-07-05T10:52:21.435Z,46.13
2023-07-05T10:53:26.903Z,44.79
2023-07-05T10:54:51.624Z,43.63
2023-07-05T10:56:20.032Z,47.24
2023-07-05T10:57:31.881Z,45.77
2023-07-05T10:58:47.597Z,43.70
2023-07-05T11:00:00.401Z,44.17
2023-07-05T11:01:16.764Z,44.37
2023-07-05T11:02:40.373Z,44.97
2023-07-05T11:03:57.692Z,47.04
2023-07-05T11:05:02.030Z,44.13
2023-07-05T11:06:06.105Z,44.06
2023-07-05T11:07:12.279Z,45.28
2023-07-05T11:08:24.843Z,44.56
2023-07-05T11:09:32.029Z,46.20
2023-07-05T11:10:40.178Z,42.65
2023-07-05T11:11:49.930Z,43.23
2023-07-05T11:12:54.608Z,42.81
2023-07-05T11:14:01.742Z,43.71
2023-07-05T11:15:05.591Z,45.25
2023-07-05T11:16:09.347Z,43.12
2023-07-05T11:17:22.500Z,44.67
2023-07-05T11:18:27.531Z,42.81
2023-07-05T11:19:33.305Z,43.61
2023-07-05T11:20:36.511Z,44.24
2023-07-05T11:21:42.617Z,43.60
2023-07-05T11:22:46.560Z,41.54
2023-07-05T11:23:53.714Z,40.54
2023-07-05T11:24:56.568Z,43.69
2023-07-05T11:26:01.426Z,44.02
2023-07-05T11:27:24.215Z,40.83
2023-07-05T11:28:44.285Z,41.27
2023-07-05T11:29:47.403Z,43.09
2023-07-05T11:30:50.328Z,41.16
2023-07-05T11:31:53.389Z,41.40
2023-07-05T11:33:05.880Z,39.21
2023-07-05T11:34:30.543Z,42.98
2023-07-05T11:35:46.647Z,46.26
2023-07-05T11:36:53.920Z,41.34
2023-07-05T11:37:56.798Z,41.30
2023-07-05T11:38:59.872Z,42.03
2023-07-05T11:40:06.862Z,39.32
2023-07-05T11:41:31.571Z,38.66
2023-07-05T11:42:40.510Z,38.74
2023-07-05T11:43:45.555Z,38.86
2023-07-05T11:44:50.950Z,38.37
2023-07-05T11:45:53.813Z,36.98
2023-07-05T11:46:59.344Z,40.43
2023-07-05T11:48:02.453Z,37.64
2023-07-05T11:49:28.368Z,37.04
2023-07-05T11:50:31.221Z,40.93
2023-07-05T11:51:37.927Z,37.68
2023-07-05T11:52:47.757Z,38.81
2023-07-05T11:53:54.633Z,37.70
2023-07-05T11:55:17.564Z,38.07
2023-07-05T11:56:21.367Z,40.25
2023-07-05T11:57:27.023Z,37.19
2023-07-05T11:58:36.309Z,36.14
2023-07-05T12:00:07.219Z,37.24
2023-07-05T12:01:19.990Z,41.35
2023-07-05T12:02:31.693Z,38.23
2023-07-05T12:03:46.752Z,38.05
2023-07-05T12:04:54.766Z,36.66
2023-07-05T12:06:09.933Z,35.14
2023-07-05T12:07:13.365Z,35.33
2023-07-05T12:08:26.249Z,36.39
2023-07-05T12:09:39.874Z,36.71
2023-07-05T12:10:56.231Z,33.91
2023-07-05T12:12:00.000Z,33.95
2023-07-05T12:13:07.922Z,34.80
2023-07-05T12:14:18.849Z,35.16
2023-07-05T12:15:22.119Z,33.19
2023-07-05T12:16:25.721Z,32.67
2023-07-05T12:17:30.686Z,32.15
2023-07-05T12:18:34.697Z,32.53
2023-07-05T12:19:39.235Z,32.61
2023-07-05T12:20:48.588Z,35.70
2023-07-05T12:22:07.300Z,36.45
2023-07-05T12:23:14.614Z,34.59
2023-07-05T12:24:17.672Z,34.75
2023-07-05T12:25:21.137Z,31.94
2023-07-05T12:26:33.289Z,31.15
2023-07-05T12:27:37.109Z,32.05
2023-07-05T12:28:47.631Z,31.66
2023-07-05T12:29:54.740Z,31.56
2023-07-05T12:30:59.821Z,31.74
2023-07-05T12:32:09.108Z,31.01
2023-07-05T12:33:27.538Z,29.51
2023-07-05T12:34:30.631Z,32.26
2023-07-05T12:35:33.490Z,31.52
2023-07-05T12:36:42.522Z,31.26
2023-07-05T12:37:47.115Z,29.62
2023-07-05T12:38:52.241Z,30.22
2023-07-05T12:40:13.257Z,28.91
2023-07-05T12:41:28.319Z,30.00
2023-07-05T12:42:31.574Z,32.56
2023-07-05T12:43:34.523Z,29.75
2023-07-05T12:44:40.157Z,30.56
2023-07-05T12:45:45.031Z,29.51
2023-07-05T12:46:50.178Z,28.74
2023-07-05T12:47:54.746Z,29.24
2023-07-05T12:49:10.113Z,27.69
2023-07-05T12:50:13.052Z,29.15
2023-07-05T12:51:22.313Z,28.56
2023-07-05T12:52:25.322Z,29.36
2023-07-05T12:53:28.282Z,28.80
2023-07-05T12:54:31.239Z,27.29
2023-07-05T12:55:38.592Z,26.24
2023-07-05T12:56:45.791Z,26.76
2023-07-05T12:57:50.979Z,28.95
2023-07-05T12:59:01.272Z,27.56
2023-07-05T13:00:11.039Z,27.79
2023-07-05T13:01:14.628Z,26.33
2023-07-05T13:02:30.359Z,23.94
2023-07-05T13:03:33.673Z,28.98
2023-07-05T13:04:39.084Z,25.86
2023-07-05T13:05:42.225Z,25.88
2023-07-05T13:06:49.901Z,26.83
2023-07-05T13:07:54.490Z,27.99
2023-07-05T13:08:58.274Z,25.43
2023-07-05T13:10:07.591Z,27.13
2023-07-05T13:11:19.195Z,24.48
2023-07-05T13:12:22.135Z,24.08
2023-07-05T13:13:36.337Z,26.12
2023-07-05T13:14:44.558Z,26.23
2023-07-05T13:15:47.566Z,25.35
2023-07-05T13:16:59.098Z,24.21
2023-07-05T13:18:33.879Z,24.50
2023-07-05T13:19:43.791Z,26.67
2023-07-05T13:20:48.074Z,25.45
2023-07-05T13:21:51.453Z,25.98
2023-07-05T13:22:58.799Z,25.66
2023-07-05T13:24:02.088Z,27.18
2023-07-05T13:25:06.611Z,24.32
2023-07-05T13:26:19.783Z,23.22
2023-07-05T13:27:36.395Z,24.00
2023-07-05T13:28:41.482Z,24.75
2023-07-05T13:29:44.473Z,25.27
2023-07-05T13:30:58.193Z,23.73
2023-07-05T13:32:01.512Z,25.80
2023-07-05T13:33:05.515Z,24.56
2023-07-05T13:34:08.484Z,24.09
2023-07-05T13:35:11.567Z,23.36
2023-07-05T13:36:14.495Z,23.41
2023-07-05T13:37:22.558Z,21.85
2023-07-05T13:38:25.414Z,24.87
2023-07-05T13:39:29.424Z,24.02
2023-07-05T13:40:32.712Z,25.89
2023-07-05T13:41:36.954Z,23.83
2023-07-05T13:42:41.228Z,23.83
2023-07-05T13:43:44.038Z,25.15
2023-07-05T13:44:48.063Z,24.05
2023-07-05T13:45:52.637Z,25.39
2023-07-05T13:46:55.614Z,25.36
2023-07-05T13:48:01.209Z,23.37
2023-07-05T13:49:04.546Z,25.98
2023-07-05T13:50:08.640Z,25.74
2023-07-05T13:51:24.969Z,25.55
2023-07-05T13:52:27.895Z,23.44
2023-07-05T13:53:30.941Z,22.47
2023-07-05T13:54:34.079Z,22.10
2023-07-05T13:55:37.064Z,23.31
2023-07-05T13:56:40.312Z,23.26
2023-07-05T13:57:57.134Z,22.61
2023-07-05T13:58:59.980Z,26.72
2023-07-05T14:00:05.461Z,23.94
2023-07-05T14:01:17.406Z,24.10
2023-07-05T14:02:31.957Z,25.59
2023-07-05T14:03:52.391Z,25.61
2023-07-05T14:05:08.060Z,22.03
2023-07-05T14:06:24.717Z,23.52
2023-07-05T14:09:11.639Z,22.97
2023-07-05T14:12:14.370Z,23.71
2023-07-05T14:13:44.003Z,25.09
2023-07-05T14:14:56.572Z,26.61
2023-07-05T14:16:00.359Z,24.17
2023-07-05T14:17:16.450Z,24.67
2023-07-05T14:18:38.366Z,26.04
2023-07-05T14:19:47.580Z,27.95
2023-07-05T14:25:26.094Z,25.76
2023-07-05T14:26:37.874Z,26.21
2023-07-05T14:27:58.160Z,24.66
2023-07-05T14:29:35.327Z,27.41
2023-07-05T14:33:23.454Z,25.16